Cardinal — V7IB3 — position and weather

sailwx.info

Track history (hours):
 
Tides and Currents Weather Stations Pressure Air Temp Water Temp Dewpoint Dewpoint Depression Visibility Wind Speed Wind Dir Waves Ship Positions

Cardinal

Last reported at 2015-Jul-24 16:30 UTC. Time now 2015-Jul-31 11:18 UTC.
Position N 26°51' W 014°49'.

Length 191 m; draft 9.9 m.

Type: Cargo ship. MMSI: 538002349.

Date/timePositionNaut miles runAvg speedWind from/ knotsBaromVisibWave heightAir tempDewpointWater temp
2015-Jul-24 16:30N 26°51' W 014°49'1313.4
2015-Jul-24 15:33N 27°00' W 014°39'1313.3
2015-Jul-24 14:33N 27°09' W 014°28'1313.3
2015-Jul-24 13:33N 27°19' W 014°17'1313.5
2015-Jul-24 12:33N 27°28' W 014°06'1413.8
2015-Jul-24 11:33N 27°37' W 013°55'1414.2
2015-Jul-24 10:33N 27°47' W 013°43'1413.9
2015-Jul-24 09:33N 27°59' W 013°34'1413.8
2015-Jul-24 08:33N 28°10' W 013°25'1413.6
2015-Jul-24 07:31N 28°22' W 013°17'1313.8
2015-Jul-24 06:33N 28°33' W 013°08'1313.4
2015-Jul-24 05:33N 28°44' W 013°00'1313.5
2015-Jul-24 04:33N 28°56' W 012°52'1313.4
2015-Jul-24 03:33N 29°07' W 012°44'1313.2
2015-Jul-24 02:33N 29°18' W 012°35'1313.3
2015-Jul-24 01:33N 29°29' W 012°27'1313.3
2015-Jul-24 00:33N 29°41' W 012°19'2813.8
2015-Jul-23 22:33N 30°04' W 012°02'1413.8
2015-Jul-23 21:33N 30°15' W 011°53'1414.1
2015-Jul-23 20:33N 30°27' W 011°45'1414.1
2015-Jul-23 19:33N 30°39' W 011°36'1414.2
2015-Jul-23 18:33N 30°51' W 011°27'1414.4
2015-Jul-23 17:33N 31°03' W 011°18'1414.0
2015-Jul-23 16:33N 31°15' W 011°08'1413.7
2015-Jul-23 15:33N 31°27' W 011°00'1513.8
2015-Jul-23 14:29N 31°39' W 010°51'1314.0
2015-Jul-23 13:33N 31°50' W 010°43'1414.2
2015-Jul-23 12:33N 32°02' W 010°33'1413.7
2015-Jul-23 11:33N 32°13' W 010°24'2813.7
2015-Jul-23 09:32N 32°35' W 010°05'1313.2
2015-Jul-23 08:33N 32°45' W 009°54'1313.4
2015-Jul-23 07:33N 32°54' W 009°43'1413.7
2015-Jul-23 06:33N 33°04' W 009°32'1413.7
2015-Jul-23 05:33N 33°14' W 009°20'1313.5
2015-Jul-23 04:33N 33°23' W 009°09'1313.4
2015-Jul-23 03:33N 33°33' W 008°57'3213.2
2015-Jul-23 01:07N 33°56' W 008°30'813.6
2015-Jul-23 00:31N 34°01' W 008°23'1313.3
2015-Jul-22 23:33N 34°09' W 008°11'12413.6
2015-Jul-22 14:25N 35°37' W 006°23'1214.1
2015-Jul-22 13:33N 35°44' W 006°12'1413.5
2015-Jul-22 12:33N 35°52' W 005°58'258 7.8
2015-Jul-21 03:30N 36°39' W 000°43'4113.3
2015-Jul-21 00:25N 36°46' E 000°07'1813.4
2015-Jul-20 23:03N 36°50' E 000°29'713.6
2015-Jul-20 22:33N 36°52' E 000°38'1413.0
2015-Jul-20 21:29N 36°54' E 000°55'1212.7
2015-Jul-20 20:32N 36°56' E 001°10'1313.3
2015-Jul-20 19:33N 36°58' E 001°26'1413.4
2015-Jul-20 18:32N 37°01' E 001°43'1513.6
2015-Jul-20 17:26N 37°03' E 002°01'1413.6
2015-Jul-20 16:25N 37°06' E 002°18'1513.3
2015-Jul-20 15:18N 37°09' E 002°36'1013.3
2015-Jul-20 14:33N 37°10' E 002°48'1313.4
2015-Jul-20 13:33N 37°13' E 003°05'1313.4
2015-Jul-20 12:33N 37°15' E 003°22'1513.5
2015-Jul-20 11:26N 37°18' E 003°40'6613.5
2015-Jul-20 06:32N 37°29' E 005°02'1313.3
2015-Jul-20 05:33N 37°31' E 005°18'1313.2
2015-Jul-20 04:33N 37°33' E 005°35'1413.4
2015-Jul-20 03:32N 37°35' E 005°52'1413.4
2015-Jul-20 02:31N 37°36' E 006°09'1313.7
2015-Jul-20 01:33N 37°38' E 006°26'1413.8
2015-Jul-20 00:33N 37°39' E 006°43'9313.3
2015-Jul-19 17:32N 37°48' E 008°40'1312.7
2015-Jul-19 16:33N 37°49' E 008°56'1212.2
2015-Jul-19 15:33N 37°49' E 009°12'1312.8
2015-Jul-19 14:33N 37°46' E 009°27'1312.6
2015-Jul-19 13:33N 37°43' E 009°43'1212.3
2015-Jul-19 12:33N 37°40' E 009°58'1212.2
2015-Jul-19 11:32N 37°39' E 010°14'1212.5
2015-Jul-19 10:33N 37°37' E 010°29'1312.8
2015-Jul-19 09:33N 37°33' E 010°44'1313.2
2015-Jul-19 08:33N 37°30' E 011°00'1313.2
2015-Jul-19 07:33N 37°25' E 011°16'1313.6
2015-Jul-19 06:33N 37°18' E 011°30'7813.0
2015-Jul-19 00:33N 36°47' E 013°00'1313.1
2015-Jul-18 23:33N 36°45' E 013°16'1313.0
2015-Jul-18 22:33N 36°44' E 013°32'1312.7
2015-Jul-18 21:33N 36°41' E 013°48'1413.6
2015-Jul-18 20:33N 36°39' E 014°04'1413.7
2015-Jul-18 19:34N 36°37' E 014°21'1413.6
2015-Jul-18 18:34N 36°35' E 014°38'1413.4
2015-Jul-18 17:33N 36°33' E 014°55'1313.2
2015-Jul-18 16:34N 36°31' E 015°11'1313.1
2015-Jul-18 15:34N 36°29' E 015°27'1313.2
2015-Jul-18 14:34N 36°27' E 015°43'1312.6
2015-Jul-18 13:33N 36°25' E 015°59'12213.4
2015-Jul-18 04:28N 36°17' E 018°30'29011.4
2015-Jul-17 03:06N 37°43' E 024°17'813.5
2015-Jul-17 02:30N 37°49' E 024°25'4413.4
2015-Jul-16 23:13N 38°26' E 024°55'  
Track history (hours):
 
Tides and Currents Weather Stations Pressure Air Temp Water Temp Dewpoint Dewpoint Depression Visibility Wind Speed Wind Dir Waves Ship Positions

Cardinal

Last reported at 2015-Jul-24 16:30 UTC. Time now 2015-Jul-31 11:18 UTC.
Position N 26°51' W 014°49'.

Length 191 m; draft 9.9 m.

Type: Cargo ship. MMSI: 538002349.

Date/timePositionNaut miles runAvg speedWind from/ knotsBaromVisibWave heightAir tempDewpointWater temp
2015-Jul-24 16:30N 26°51' W 014°49'1313.4
2015-Jul-24 15:33N 27°00' W 014°39'1313.3
2015-Jul-24 14:33N 27°09' W 014°28'1313.3
2015-Jul-24 13:33N 27°19' W 014°17'1313.5
2015-Jul-24 12:33N 27°28' W 014°06'1413.8
2015-Jul-24 11:33N 27°37' W 013°55'1414.2
2015-Jul-24 10:33N 27°47' W 013°43'1413.9
2015-Jul-24 09:33N 27°59' W 013°34'1413.8
2015-Jul-24 08:33N 28°10' W 013°25'1413.6
2015-Jul-24 07:31N 28°22' W 013°17'1313.8
2015-Jul-24 06:33N 28°33' W 013°08'1313.4
2015-Jul-24 05:33N 28°44' W 013°00'1313.5
2015-Jul-24 04:33N 28°56' W 012°52'1313.4
2015-Jul-24 03:33N 29°07' W 012°44'1313.2
2015-Jul-24 02:33N 29°18' W 012°35'1313.3
2015-Jul-24 01:33N 29°29' W 012°27'1313.3
2015-Jul-24 00:33N 29°41' W 012°19'2813.8
2015-Jul-23 22:33N 30°04' W 012°02'1413.8
2015-Jul-23 21:33N 30°15' W 011°53'1414.1
2015-Jul-23 20:33N 30°27' W 011°45'1414.1
2015-Jul-23 19:33N 30°39' W 011°36'1414.2
2015-Jul-23 18:33N 30°51' W 011°27'1414.4
2015-Jul-23 17:33N 31°03' W 011°18'1414.0
2015-Jul-23 16:33N 31°15' W 011°08'1413.7
2015-Jul-23 15:33N 31°27' W 011°00'1513.8
2015-Jul-23 14:29N 31°39' W 010°51'1314.0
2015-Jul-23 13:33N 31°50' W 010°43'1414.2
2015-Jul-23 12:33N 32°02' W 010°33'1413.7
2015-Jul-23 11:33N 32°13' W 010°24'2813.7
2015-Jul-23 09:32N 32°35' W 010°05'1313.2
2015-Jul-23 08:33N 32°45' W 009°54'1313.4
2015-Jul-23 07:33N 32°54' W 009°43'1413.7
2015-Jul-23 06:33N 33°04' W 009°32'1413.7
2015-Jul-23 05:33N 33°14' W 009°20'1313.5
2015-Jul-23 04:33N 33°23' W 009°09'1313.4
2015-Jul-23 03:33N 33°33' W 008°57'3213.2
2015-Jul-23 01:07N 33°56' W 008°30'813.6
2015-Jul-23 00:31N 34°01' W 008°23'1313.3
2015-Jul-22 23:33N 34°09' W 008°11'12413.6
2015-Jul-22 14:25N 35°37' W 006°23'1214.1
2015-Jul-22 13:33N 35°44' W 006°12'1413.5
2015-Jul-22 12:33N 35°52' W 005°58'258 7.8
2015-Jul-21 03:30N 36°39' W 000°43'4113.3
2015-Jul-21 00:25N 36°46' E 000°07'1813.4
2015-Jul-20 23:03N 36°50' E 000°29'713.6
2015-Jul-20 22:33N 36°52' E 000°38'1413.0
2015-Jul-20 21:29N 36°54' E 000°55'1212.7
2015-Jul-20 20:32N 36°56' E 001°10'1313.3
2015-Jul-20 19:33N 36°58' E 001°26'1413.4
2015-Jul-20 18:32N 37°01' E 001°43'1513.6
2015-Jul-20 17:26N 37°03' E 002°01'1413.6
2015-Jul-20 16:25N 37°06' E 002°18'1513.3
2015-Jul-20 15:18N 37°09' E 002°36'1013.3
2015-Jul-20 14:33N 37°10' E 002°48'1313.4
2015-Jul-20 13:33N 37°13' E 003°05'1313.4
2015-Jul-20 12:33N 37°15' E 003°22'1513.5
2015-Jul-20 11:26N 37°18' E 003°40'6613.5
2015-Jul-20 06:32N 37°29' E 005°02'1313.3
2015-Jul-20 05:33N 37°31' E 005°18'1313.2
2015-Jul-20 04:33N 37°33' E 005°35'1413.4
2015-Jul-20 03:32N 37°35' E 005°52'1413.4
2015-Jul-20 02:31N 37°36' E 006°09'1313.7
2015-Jul-20 01:33N 37°38' E 006°26'1413.8
2015-Jul-20 00:33N 37°39' E 006°43'9313.3
2015-Jul-19 17:32N 37°48' E 008°40'1312.7
2015-Jul-19 16:33N 37°49' E 008°56'1212.2
2015-Jul-19 15:33N 37°49' E 009°12'1312.8
2015-Jul-19 14:33N 37°46' E 009°27'1312.6
2015-Jul-19 13:33N 37°43' E 009°43'1212.3
2015-Jul-19 12:33N 37°40' E 009°58'1212.2
2015-Jul-19 11:32N 37°39' E 010°14'1212.5
2015-Jul-19 10:33N 37°37' E 010°29'1312.8
2015-Jul-19 09:33N 37°33' E 010°44'1313.2
2015-Jul-19 08:33N 37°30' E 011°00'1313.2
2015-Jul-19 07:33N 37°25' E 011°16'1313.6
2015-Jul-19 06:33N 37°18' E 011°30'7813.0
2015-Jul-19 00:33N 36°47' E 013°00'1313.1
2015-Jul-18 23:33N 36°45' E 013°16'1313.0
2015-Jul-18 22:33N 36°44' E 013°32'1312.7
2015-Jul-18 21:33N 36°41' E 013°48'1413.6
2015-Jul-18 20:33N 36°39' E 014°04'1413.7
2015-Jul-18 19:34N 36°37' E 014°21'1413.6
2015-Jul-18 18:34N 36°35' E 014°38'1413.4
2015-Jul-18 17:33N 36°33' E 014°55'1313.2
2015-Jul-18 16:34N 36°31' E 015°11'1313.1
2015-Jul-18 15:34N 36°29' E 015°27'1313.2
2015-Jul-18 14:34N 36°27' E 015°43'1312.6
2015-Jul-18 13:33N 36°25' E 015°59'12213.4
2015-Jul-18 04:28N 36°17' E 018°30'29011.4
2015-Jul-17 03:06N 37°43' E 024°17'813.5
2015-Jul-17 02:30N 37°49' E 024°25'4413.4
2015-Jul-16 23:13N 38°26' E 024°55'  

Dump ship's entire track history